Time;durP1;ratioP1;P1;durP2;ratioP2;P2;SDS_P1;SDS_P2;PMS_P1;PMS_P2;Temp;Humidity;BMP_temperature;BMP_pressure;BME280_temperature;BME280_humidity;BME280_pressure;Samples;Min_cycle;Max_cycle;Signal;HPM_P1;HPM_P2
2023/07/31 00:09:03;;;;;;;2.47;2.05;;;30.60;29.10;;;;;;21088562;28;20056;-57
2023/07/31 00:19:04;;;;;;;3.25;2.38;;;30.50;29.30;;;;;;21089167;28;20396;-56
2023/07/31 00:29:04;;;;;;;2.72;2.20;;;30.40;29.70;;;;;;21088335;28;20072;-57
2023/07/31 00:39:05;;;;;;;4.35;2.17;;;30.10;30.10;;;;;;21087393;28;20076;-57
2023/07/31 00:49:07;;;;;;;5.47;3.03;;;30.00;31.70;;;;;;21086844;28;20040;-55
2023/07/31 00:59:08;;;;;;;2.05;1.60;;;29.80;32.10;;;;;;21086186;28;20412;-56
2023/07/31 01:09:35;;;;;;;3.22;1.70;;;29.60;33.50;;;;;;21084384;28;20079;-55
2023/07/31 01:19:36;;;;;;;4.90;1.98;;;29.70;34.50;;;;;;21082765;28;20082;-55
2023/07/31 01:30:10;;;;;;;6.20;2.22;;;29.60;35.00;;;;;;21083607;28;20463;-56
2023/07/31 01:40:11;;;;;;;2.28;1.60;;;29.60;36.50;;;;;;21081516;28;20044;-56
2023/07/31 01:50:12;;;;;;;1.90;1.40;;;29.20;37.80;;;;;;21081584;28;20060;-56
2023/07/31 02:00:13;;;;;;;2.50;1.80;;;29.10;38.90;;;;;;21080073;28;20044;-56
2023/07/31 02:10:13;;;;;;;3.55;1.60;;;29.00;39.00;;;;;;21079744;28;20417;-56
2023/07/31 02:20:14;;;;;;;3.03;1.50;;;28.80;39.80;;;;;;21079546;28;20059;-57
2023/07/31 02:30:15;;;;;;;2.03;1.40;;;28.60;40.40;;;;;;21079648;28;20036;-55
2023/07/31 02:40:16;;;;;;;2.35;1.75;;;28.60;40.70;;;;;;21079036;28;20051;-55
2023/07/31 02:50:16;;;;;;;;;;;28.40;41.10;;;;;;21078754;28;20102;-55
2023/07/31 03:00:17;;;;;;;3.53;1.93;;;28.20;40.70;;;;;;21076882;28;20020;-56
2023/07/31 03:10:18;;;;;;;;;;;28.00;40.20;;;;;;21076858;28;20048;-56
2023/07/31 03:20:18;;;;;;;3.07;2.33;;;27.70;40.20;;;;;;21077884;28;20385;-55
2023/07/31 03:30:19;;;;;;;2.17;1.50;;;27.50;40.20;;;;;;21085335;28;20044;-56
2023/07/31 03:40:20;;;;;;;3.13;1.70;;;27.50;41.60;;;;;;21092447;28;20800;-56
2023/07/31 03:50:21;;;;;;;3.00;1.60;;;27.60;43.10;;;;;;21091578;28;20048;-56
2023/07/31 04:00:22;;;;;;;2.30;1.70;;;27.50;43.40;;;;;;21090754;28;20139;-57
2023/07/31 04:10:23;;;;;;;2.35;1.40;;;27.40;43.80;;;;;;21089336;28;20388;-56
2023/07/31 04:20:24;;;;;;;2.47;1.55;;;27.20;44.20;;;;;;21087679;28;20083;-56
2023/07/31 04:30:24;;;;;;;2.07;1.43;;;27.20;44.50;;;;;;21088375;28;20044;-56
2023/07/31 04:40:25;;;;;;;3.47;1.73;;;27.10;44.60;;;;;;21086485;28;20436;-55
2023/07/31 04:50:26;;;;;;;3.93;1.70;;;26.90;45.20;;;;;;21085196;28;20189;-57
2023/07/31 05:00:27;;;;;;;2.57;1.70;;;26.70;45.50;;;;;;21084749;28;20436;-56
2023/07/31 05:10:28;;;;;;;2.73;1.60;;;26.70;45.80;;;;;;21083878;28;20056;-56
2023/07/31 05:20:28;;;;;;;5.17;1.80;;;26.60;46.00;;;;;;21084136;28;20189;-56
2023/07/31 05:30:32;;;;;;;3.30;1.50;;;26.40;46.30;;;;;;21083340;28;20152;-55
2023/07/31 05:40:33;;;;;;;2.30;1.80;;;26.40;46.40;;;;;;21081351;28;20142;-56
2023/07/31 05:50:34;;;;;;;2.88;1.90;;;26.40;46.50;;;;;;21080926;28;20512;-56
2023/07/31 06:00:35;;;;;;;3.20;2.20;;;26.30;46.80;;;;;;21080212;28;20036;-54
2023/07/31 06:10:36;;;;;;;1.90;1.40;;;26.30;46.80;;;;;;21080175;28;20497;-54
2023/07/31 06:20:36;;;;;;;3.70;1.83;;;26.30;46.70;;;;;;21080440;28;20050;-55
2023/07/31 06:30:37;;;;;;;4.60;1.83;;;26.40;46.50;;;;;;21079508;28;20071;-54
2023/07/31 06:40:38;;;;;;;4.17;2.10;;;26.40;46.40;;;;;;21079095;28;20077;-56
2023/07/31 06:50:39;;;;;;;4.57;2.03;;;26.50;46.10;;;;;;21078583;28;20090;-56
2023/07/31 07:00:39;;;;;;;3.17;1.73;;;26.90;45.10;;;;;;21081062;28;20381;-55
2023/07/31 07:10:40;;;;;;;3.10;1.87;;;27.50;44.00;;;;;;21092802;28;20374;-55
2023/07/31 07:20:47;;;;;;;3.97;2.10;;;28.10;42.70;;;;;;21093360;28;20048;-56
2023/07/31 07:30:53;;;;;;;5.90;3.55;;;28.50;41.90;;;;;;21092790;28;20040;-55
2023/07/31 07:40:54;;;;;;;2.88;1.95;;;28.90;41.10;;;;;;21092269;28;20087;-55
2023/07/31 07:50:55;;;;;;;7.20;2.45;;;29.00;41.00;;;;;;21091566;28;20048;-55
2023/07/31 08:00:55;;;;;;;4.22;2.03;;;29.50;39.90;;;;;;21091368;28;20051;-54
2023/07/31 08:10:56;;;;;;;5.85;2.20;;;29.70;39.50;;;;;;21089571;28;20063;-57
2023/07/31 08:20:57;;;;;;;4.93;2.22;;;30.10;38.70;;;;;;21087630;28;20036;-57
2023/07/31 08:30:58;;;;;;;5.70;2.10;;;30.20;38.30;;;;;;21087589;28;20074;-55
2023/07/31 08:40:59;;;;;;;7.07;2.22;;;30.40;38.10;;;;;;21088082;28;20475;-55
2023/07/31 08:50:59;;;;;;;5.03;2.08;;;30.60;37.80;;;;;;21085188;28;20048;-56
2023/07/31 09:01:03;;;;;;;4.97;2.00;;;30.70;37.10;;;;;;21085828;28;20441;-55
2023/07/31 09:11:04;;;;;;;3.05;2.08;;;30.70;37.00;;;;;;21085310;28;20135;-55
2023/07/31 09:21:06;;;;;;;8.40;3.33;;;30.90;37.10;;;;;;21083723;28;20179;-56
2023/07/31 09:31:06;;;;;;;5.07;2.45;;;31.10;36.70;;;;;;21083461;28;20511;-55
2023/07/31 09:41:08;;;;;;;7.93;3.42;;;31.40;36.00;;;;;;21082861;28;20118;-55
2023/07/31 09:51:09;;;;;;;5.00;2.05;;;31.60;35.50;;;;;;21082210;28;20048;-56
2023/07/31 10:01:10;;;;;;;4.32;2.38;;;31.70;35.40;;;;;;21081168;28;20105;-55
2023/07/31 10:11:14;;;;;;;3.05;2.20;;;32.00;35.00;;;;;;21079733;28;20147;-57
2023/07/31 10:21:15;;;;;;;8.18;2.50;;;32.00;35.00;;;;;;21079886;28;20378;-55
2023/07/31 10:31:16;;;;;;;3.40;2.78;;;32.10;34.90;;;;;;21079523;28;20072;-55
2023/07/31 10:41:17;;;;;;;4.93;2.53;;;32.20;33.70;;;;;;21078375;28;20055;-55
2023/07/31 10:51:22;;;;;;;14.77;3.20;;;32.40;32.80;;;;;;21078255;28;20048;-57
2023/07/31 11:01:23;;;;;;;8.13;3.70;;;32.70;32.20;;;;;;21078030;28;20100;-56
2023/07/31 11:11:23;;;;;;;6.32;2.20;;;32.80;31.60;;;;;;21059734;28;20135;-55
2023/07/31 11:21:25;;;;;;;10.52;3.00;;;32.80;31.90;;;;;;21075591;28;20141;-55
2023/07/31 11:31:26;;;;;;;8.95;2.75;;;33.10;31.20;;;;;;21076262;28;20504;-55
2023/07/31 11:41:29;;;;;;;7.55;3.00;;;33.20;31.30;;;;;;21075772;28;20120;-55
2023/07/31 11:51:30;;;;;;;6.00;2.88;;;33.40;30.80;;;;;;21081485;28;20052;-55
2023/07/31 12:01:31;;;;;;;3.28;1.90;;;33.60;27.40;;;;;;21088314;28;20464;-58
2023/07/31 12:11:46;;;;;;;7.22;2.35;;;33.60;27.70;;;;;;21086949;28;20131;-56
2023/07/31 12:21:47;;;;;;;4.00;2.40;;;34.10;25.90;;;;;;21087316;28;20048;-56
2023/07/31 12:31:47;;;;;;;4.60;2.30;;;34.10;26.70;;;;;;21086964;28;20050;-56
2023/07/31 12:41:48;;;;;;;6.28;4.20;;;34.10;27.20;;;;;;21087331;28;20528;-56
2023/07/31 12:51:49;;;;;;;4.72;3.00;;;34.30;25.80;;;;;;21085386;28;20055;-55
2023/07/31 13:01:50;;;;;;;3.00;2.17;;;34.60;25.10;;;;;;21083831;28;20405;-57
2023/07/31 13:11:51;;;;;;;3.47;2.05;;;34.80;25.20;;;;;;21084146;28;20489;-55
2023/07/31 13:21:52;;;;;;;10.00;3.95;;;35.00;24.20;;;;;;21083877;28;20048;-57
2023/07/31 13:31:53;;;;;;;7.72;3.20;;;35.10;23.30;;;;;;21082972;28;20051;-56
2023/07/31 13:41:54;;;;;;;6.55;4.35;;;35.10;23.10;;;;;;21082612;28;20052;-56
2023/07/31 13:51:54;;;;;;;4.75;2.03;;;35.00;23.30;;;;;;21082067;28;20127;-57
2023/07/31 14:01:55;;;;;;;4.45;1.70;;;35.10;24.20;;;;;;21080991;28;20123;-59
2023/07/31 14:11:56;;;;;;;3.15;1.80;;;35.30;23.70;;;;;;21079493;28;20060;-55
2023/07/31 14:21:59;;;;;;;5.05;2.08;;;35.60;22.70;;;;;;21080122;28;22007;-55
2023/07/31 14:31:59;;;;;;;2.10;1.80;;;35.60;22.20;;;;;;21078155;28;20051;-56
2023/07/31 14:42:00;;;;;;;3.30;1.70;;;35.40;22.00;;;;;;21078997;28;20500;-54
2023/07/31 14:52:01;;;;;;;4.15;2.13;;;35.50;22.00;;;;;;21078606;28;20060;-56
2023/07/31 15:02:02;;;;;;;2.67;1.80;;;35.80;21.50;;;;;;21078145;28;20098;-56
2023/07/31 15:12:03;;;;;;;3.05;2.08;;;35.60;21.60;;;;;;21076960;28;20432;-55
2023/07/31 15:22:04;;;;;;;4.55;2.03;;;35.70;21.50;;;;;;21079485;28;20178;-56
2023/07/31 15:32:06;;;;;;;3.42;1.90;;;35.90;21.00;;;;;;21091273;28;20086;-55
2023/07/31 15:42:08;;;;;;;4.80;2.00;;;36.10;21.00;;;;;;21090677;28;20051;-56
2023/07/31 15:52:09;;;;;;;3.53;2.10;;;36.10;20.40;;;;;;21089223;28;20047;-56
2023/07/31 16:02:11;;;;;;;2.72;1.98;;;35.90;20.40;;;;;;21086754;28;20131;-58
2023/07/31 16:12:12;;;;;;;3.60;2.50;;;36.00;20.30;;;;;;21086956;28;20063;-56
2023/07/31 16:22:13;;;;;;;2.80;2.00;;;36.10;19.80;;;;;;21087604;28;20477;-57
2023/07/31 16:32:13;;;;;;;3.60;2.50;;;36.10;19.60;;;;;;21087192;28;20465;-55
2023/07/31 16:42:14;;;;;;;3.80;2.42;;;36.10;19.40;;;;;;21086417;28;20126;-55
2023/07/31 16:52:15;;;;;;;3.03;2.15;;;36.10;19.50;;;;;;21086091;28;20048;-55
2023/07/31 17:02:16;;;;;;;2.92;2.17;;;36.00;19.60;;;;;;21084340;28;20044;-56
2023/07/31 17:12:17;;;;;;;7.10;3.35;;;36.00;19.50;;;;;;21084443;28;20528;-56
2023/07/31 17:22:17;;;;;;;5.50;2.90;;;36.10;20.50;;;;;;21083240;28;20091;-55
2023/07/31 17:32:18;;;;;;;3.70;2.70;;;36.10;20.40;;;;;;21082645;28;20357;-56
2023/07/31 17:42:19;;;;;;;5.35;3.35;;;36.00;20.40;;;;;;21080171;28;20044;-56
2023/07/31 17:52:21;;;;;;;5.93;3.10;;;35.90;21.40;;;;;;21081576;28;20043;-55
2023/07/31 18:02:21;;;;;;;6.03;3.42;;;35.90;21.80;;;;;;21080375;28;20109;-55
2023/07/31 18:12:22;;;;;;;7.45;3.60;;;35.60;21.80;;;;;;21079401;28;20048;-55
2023/07/31 18:22:23;;;;;;;7.97;3.38;;;35.50;22.20;;;;;;21078318;28;20044;-56
2023/07/31 18:32:24;;;;;;;7.88;3.55;;;35.30;22.70;;;;;;21077354;28;20044;-55
2023/07/31 18:42:24;;;;;;;8.32;3.67;;;35.10;23.00;;;;;;21078389;28;20044;-55
2023/07/31 18:52:25;;;;;;;6.05;3.60;;;35.00;23.50;;;;;;21077603;28;20102;-57
2023/07/31 19:02:26;;;;;;;6.55;4.13;;;34.90;23.70;;;;;;21089545;28;20036;-56
2023/07/31 19:12:27;;;;;;;6.35;5.10;;;34.60;24.00;;;;;;21094338;28;20056;-56
2023/07/31 19:22:27;;;;;;;6.15;4.10;;;34.30;24.60;;;;;;21093525;28;20186;-57
2023/07/31 19:32:29;;;;;;;4.07;2.80;;;34.10;25.00;;;;;;21091290;28;20044;-56
2023/07/31 19:42:32;;;;;;;4.38;2.85;;;33.80;21.60;;;;;;21091956;28;20074;-56
2023/07/31 19:52:33;;;;;;;5.53;2.83;;;33.50;21.30;;;;;;21091292;28;20052;-56
2023/07/31 20:02:33;;;;;;;5.40;3.33;;;33.20;21.50;;;;;;21088545;28;20052;-55
2023/07/31 20:12:36;;;;;;;5.25;3.72;;;33.00;21.60;;;;;;21087312;28;20525;-55
2023/07/31 20:22:37;;;;;;;5.97;4.47;;;32.80;21.90;;;;;;21088735;28;20048;-57
2023/07/31 20:32:37;;;;;;;6.22;4.05;;;32.60;22.00;;;;;;21088262;28;20079;-56
2023/07/31 20:42:38;;;;;;;4.78;3.83;;;32.50;21.90;;;;;;21087360;28;20064;-55
2023/07/31 20:52:39;;;;;;;5.13;3.67;;;32.30;22.00;;;;;;21086838;28;20048;-55
2023/07/31 21:02:41;;;;;;;9.13;6.78;;;32.20;22.40;;;;;;21085634;28;20478;-55
2023/07/31 21:12:42;;;;;;;5.18;3.50;;;32.00;22.70;;;;;;21084440;28;20505;-57
2023/07/31 21:22:42;;;;;;;8.07;4.15;;;32.00;22.80;;;;;;21082773;28;20117;-56
2023/07/31 21:32:43;;;;;;;8.07;4.45;;;31.80;23.10;;;;;;21082546;28;20385;-57
2023/07/31 21:42:44;;;;;;;5.82;3.50;;;31.60;23.50;;;;;;21081361;28;20043;-56
2023/07/31 21:52:45;;;;;;;5.72;3.92;;;31.40;23.70;;;;;;21080840;28;20047;-55
2023/07/31 22:02:46;;;;;;;3.63;3.10;;;31.20;23.90;;;;;;21080853;28;20379;-57
2023/07/31 22:12:47;;;;;;;6.03;3.80;;;31.10;23.50;;;;;;21079343;28;20131;-55
2023/07/31 22:22:48;;;;;;;4.65;3.50;;;30.90;23.30;;;;;;21071449;28;20044;-56
2023/07/31 22:32:48;;;;;;;5.40;3.40;;;30.80;23.80;;;;;;21078466;28;20404;-56
2023/07/31 22:42:49;;;;;;;6.65;4.45;;;30.70;23.90;;;;;;21077279;28;20134;-55
2023/07/31 22:52:50;;;;;;;6.50;3.78;;;30.60;23.60;;;;;;21078740;28;20519;-56
2023/07/31 23:02:51;;;;;;;6.28;4.78;;;30.50;24.00;;;;;;21076878;28;20087;-55
2023/07/31 23:12:51;;;;;;;8.25;5.68;;;30.30;24.60;;;;;;21076902;28;20048;-55
2023/07/31 23:22:52;;;;;;;8.05;5.13;;;30.10;24.80;;;;;;21077541;28;20047;-55
2023/07/31 23:32:53;;;;;;;8.00;5.25;;;30.00;24.70;;;;;;21077344;28;20078;-56
2023/07/31 23:42:53;;;;;;;7.13;5.35;;;29.80;24.80;;;;;;21079408;28;20095;-55
2023/07/31 23:52:55;;;;;;;7.00;5.30;;;29.70;25.00;;;;;;21091670;28;20096;-54
